Air Navigation Services of Czech Republic
Airport: LKCV Updated:  24.07.2021 07:28:29  UTC
 METAR LKCV 24.07. 07:30 ...
METAR LKCV 240730Z 11006KT 070V130 CAVOK 23/13 Q1014 NOSIG RMK BLU BLU=
 TAF LKCV 24.07. 05:00 ...
TAF LKCV 240500Z 2406/2506 VRB02KT CAVOK      BECMG 2408/2411 15008KT      BECMG 2422/2500 14004KT      TEMPO 2503/2506 18012KT 7000 RA BKN030=